Ole-arvid Nergaard — LLAY — position and weather

sailwx.info

Track history (hours):
 
Tides and Currents Weather Stations Pressure Air Temp Water Temp Dewpoint Dewpoint Depression Visibility Wind Speed Wind Dir Waves Ship Positions

Ole-arvid Nergaard

Last reported at 2017-Mar-08 22:28 UTC. Time now 2017-Mar-23 18:15 UTC.
Position N 62°23' E 004°48'.
Warning: this ship's position is 14 days out of date.

Length 55 m; draft 7.2 m.

Type: Fishing. MMSI: 259656000.

Date/timePositionNaut miles runAvg speedWind from/ knotsBaromVisibWave heightAir tempDewpointWater temp
2017-Mar-08 22:28N 62°23' E 004°48'1111.7
2017-Mar-08 21:33N 62°27' E 005°11'1211.7
2017-Mar-08 20:33N 62°30' E 005°35'1111.5
2017-Mar-08 19:33N 62°27' E 005°59'7 7.3
2017-Mar-08 18:33N 62°26' E 006°14'3 2.8
2017-Mar-08 17:33N 62°27' E 006°09'4 4.3
2017-Mar-08 16:33N 62°27' E 005°59'4 4.0
2017-Mar-08 15:33N 62°28' E 006°08'0 0.0
2017-Mar-08 14:32N 62°28' E 006°08'0 0.0
2017-Mar-08 13:33N 62°28' E 006°08'0 0.0
2017-Mar-08 12:33N 62°28' E 006°08'0 0.0
2017-Mar-08 11:33N 62°28' E 006°08'4 3.7
2017-Mar-08 10:33N 62°29' E 006°16'0 0.0
2017-Mar-08 09:33N 62°29' E 006°16'0 0.0
2017-Mar-08 08:33N 62°29' E 006°16'0 0.0
2017-Mar-08 07:32N 62°29' E 006°16'1 1.0
2017-Mar-08 06:33N 62°29' E 006°13'0 0.0
2017-Mar-08 05:33N 62°29' E 006°13'0 0.0
2017-Mar-08 04:33N 62°29' E 006°13'0 0.0
2017-Mar-08 03:33N 62°29' E 006°13'0 0.0
2017-Mar-08 02:33N 62°29' E 006°13'0 0.0
2017-Mar-08 01:33N 62°29' E 006°13'0 0.0
2017-Mar-08 00:33N 62°29' E 006°13'0 0.0
2017-Mar-07 23:32N 62°29' E 006°13'0 0.0
2017-Mar-07 22:32N 62°29' E 006°13'0 0.0
2017-Mar-07 21:33N 62°29' E 006°13'0 0.0
2017-Mar-07 20:33N 62°29' E 006°13'0 0.0
2017-Mar-07 19:33N 62°29' E 006°13'0 0.0
2017-Mar-07 18:33N 62°29' E 006°13'0 0.0
2017-Mar-07 17:33N 62°29' E 006°13'0 0.0
2017-Mar-07 16:33N 62°29' E 006°13'0 0.0
2017-Mar-07 15:33N 62°29' E 006°13'0 0.0
2017-Mar-07 14:33N 62°29' E 006°13'0 0.0
2017-Mar-07 13:33N 62°29' E 006°13'0 0.0
2017-Mar-07 12:33N 62°29' E 006°13'0 0.0
2017-Mar-07 11:33N 62°29' E 006°13'0 0.0
2017-Mar-07 10:33N 62°29' E 006°13'0 0.0
2017-Mar-07 09:33N 62°29' E 006°13'0 0.0
2017-Mar-07 08:33N 62°29' E 006°13'0 0.0
2017-Mar-07 07:32N 62°29' E 006°13'0 0.0
2017-Mar-07 06:33N 62°29' E 006°13'0 0.0
2017-Mar-07 05:33N 62°29' E 006°13'0 0.0
2017-Mar-07 04:33N 62°29' E 006°13'0 0.0
2017-Mar-07 03:33N 62°29' E 006°13'0 0.0
2017-Mar-07 02:33N 62°29' E 006°13'0 0.0
2017-Mar-07 01:33N 62°29' E 006°13'0 0.0
2017-Mar-07 00:33N 62°29' E 006°13'0 0.0
2017-Mar-06 23:33N 62°29' E 006°13'0 0.0
2017-Mar-06 22:33N 62°29' E 006°13'0 0.0
2017-Mar-06 21:33N 62°29' E 006°13'0 0.0
2017-Mar-06 20:33N 62°29' E 006°13'0 0.0
2017-Mar-06 19:33N 62°29' E 006°13'0 0.0
2017-Mar-06 18:33N 62°29' E 006°13'0 0.0
2017-Mar-06 17:33N 62°29' E 006°13'2 2.2
2017-Mar-06 16:33N 62°29' E 006°09'1 0.7
2017-Mar-06 15:33N 62°28' E 006°08'0 0.0
2017-Mar-06 14:33N 62°28' E 006°08'0 0.0
2017-Mar-06 13:33N 62°28' E 006°08'0 0.0
2017-Mar-06 12:33N 62°28' E 006°08'0 0.0
2017-Mar-06 11:32N 62°28' E 006°08'0 0.0
2017-Mar-06 10:32N 62°28' E 006°08'0 0.0
2017-Mar-06 09:33N 62°28' E 006°08'0 0.0
2017-Mar-06 08:33N 62°28' E 006°08'0 0.0
2017-Mar-06 07:33N 62°28' E 006°08'0 0.0
2017-Mar-06 06:33N 62°28' E 006°08'0 0.0
2017-Mar-06 05:33N 62°28' E 006°08'0 0.0
2017-Mar-06 04:32N 62°28' E 006°08'0 0.0
2017-Mar-06 03:33N 62°28' E 006°08'0 0.4
2017-Mar-06 02:32N 62°29' E 006°07'8 8.2
2017-Mar-06 01:32N 62°29' E 005°49'2 1.5
2017-Mar-06 00:33N 62°29' E 005°46'2 1.9
2017-Mar-05 23:33N 62°30' E 005°42'0 0.2
2017-Mar-05 22:33N 62°30' E 005°43'1 1.0
2017-Mar-05 21:32N 62°30' E 005°45'1 1.2
2017-Mar-05 20:32N 62°29' E 005°47'2 1.7
2017-Mar-05 19:33N 62°28' E 005°50'2 1.8
2017-Mar-05 18:33N 62°27' E 005°53'1 0.7
2017-Mar-05 17:33N 62°28' E 005°52'1 0.8
2017-Mar-05 16:33N 62°28' E 005°51'1 0.8
2017-Mar-05 15:33N 62°29' E 005°49'1 1.0
2017-Mar-05 14:33N 62°29' E 005°47'1 1.5
2017-Mar-05 13:33N 62°30' E 005°45'0 0.4
2017-Mar-05 12:33N 62°30' E 005°44'3 2.7
2017-Mar-05 11:33N 62°29' E 005°49'2 2.4
2017-Mar-05 10:33N 62°28' E 005°53'3 2.7
2017-Mar-05 09:33N 62°26' E 005°58'0 0.0
2017-Mar-05 08:33N 62°26' E 005°58'0 0.1
2017-Mar-05 07:33N 62°26' E 005°58'0 0.3
2017-Mar-05 06:32N 62°26' E 005°58'0 0.4
2017-Mar-05 05:33N 62°26' E 005°59'0 0.4
2017-Mar-05 04:33N 62°26' E 005°59'0 0.2
2017-Mar-05 03:33N 62°26' E 005°59'0 0.1
2017-Mar-05 02:32N 62°26' E 005°59'0 0.1
2017-Mar-05 01:33N 62°26' E 005°59'0 0.1
2017-Mar-05 00:33N 62°26' E 005°59'0 0.1
2017-Mar-04 23:33N 62°26' E 005°59'0 0.4
2017-Mar-04 22:33N 62°26' E 005°59'1 0.9
2017-Mar-04 21:33N 62°26' E 005°57'0 0.5
2017-Mar-04 20:33N 62°26' E 005°57'2 1.9
2017-Mar-04 19:33N 62°27' E 005°53'6 6.3
2017-Mar-04 18:33N 62°27' E 005°40'9 9.5
2017-Mar-04 17:33N 62°27' E 005°19'7 7.3
2017-Mar-04 16:33N 62°27' E 005°04'22 1.2
2017-Mar-03 22:21N 62°46' E 005°28'6 8.1
2017-Mar-03 21:33N 62°50' E 005°40'1 0.3
2017-Mar-03 18:33N 62°50' E 005°41'2 0.9
2017-Mar-03 16:33N 62°52' E 005°44'1 0.7
2017-Mar-03 15:33N 62°51' E 005°43'0 0.0
2017-Mar-03 06:30N 62°51' E 005°42'  
Track history (hours):
 
Tides and Currents Weather Stations Pressure Air Temp Water Temp Dewpoint Dewpoint Depression Visibility Wind Speed Wind Dir Waves Ship Positions

Ole-arvid Nergaard

Last reported at 2017-Mar-08 22:28 UTC. Time now 2017-Mar-23 18:15 UTC.
Position N 62°23' E 004°48'.
Warning: this ship's position is 14 days out of date.

Length 55 m; draft 7.2 m.

Type: Fishing. MMSI: 259656000.

Date/timePositionNaut miles runAvg speedWind from/ knotsBaromVisibWave heightAir tempDewpointWater temp
2017-Mar-08 22:28N 62°23' E 004°48'1111.7
2017-Mar-08 21:33N 62°27' E 005°11'1211.7
2017-Mar-08 20:33N 62°30' E 005°35'1111.5
2017-Mar-08 19:33N 62°27' E 005°59'7 7.3
2017-Mar-08 18:33N 62°26' E 006°14'3 2.8
2017-Mar-08 17:33N 62°27' E 006°09'4 4.3
2017-Mar-08 16:33N 62°27' E 005°59'4 4.0
2017-Mar-08 15:33N 62°28' E 006°08'0 0.0
2017-Mar-08 14:32N 62°28' E 006°08'0 0.0
2017-Mar-08 13:33N 62°28' E 006°08'0 0.0
2017-Mar-08 12:33N 62°28' E 006°08'0 0.0
2017-Mar-08 11:33N 62°28' E 006°08'4 3.7
2017-Mar-08 10:33N 62°29' E 006°16'0 0.0
2017-Mar-08 09:33N 62°29' E 006°16'0 0.0
2017-Mar-08 08:33N 62°29' E 006°16'0 0.0
2017-Mar-08 07:32N 62°29' E 006°16'1 1.0
2017-Mar-08 06:33N 62°29' E 006°13'0 0.0
2017-Mar-08 05:33N 62°29' E 006°13'0 0.0
2017-Mar-08 04:33N 62°29' E 006°13'0 0.0
2017-Mar-08 03:33N 62°29' E 006°13'0 0.0
2017-Mar-08 02:33N 62°29' E 006°13'0 0.0
2017-Mar-08 01:33N 62°29' E 006°13'0 0.0
2017-Mar-08 00:33N 62°29' E 006°13'0 0.0
2017-Mar-07 23:32N 62°29' E 006°13'0 0.0
2017-Mar-07 22:32N 62°29' E 006°13'0 0.0
2017-Mar-07 21:33N 62°29' E 006°13'0 0.0
2017-Mar-07 20:33N 62°29' E 006°13'0 0.0
2017-Mar-07 19:33N 62°29' E 006°13'0 0.0
2017-Mar-07 18:33N 62°29' E 006°13'0 0.0
2017-Mar-07 17:33N 62°29' E 006°13'0 0.0
2017-Mar-07 16:33N 62°29' E 006°13'0 0.0
2017-Mar-07 15:33N 62°29' E 006°13'0 0.0
2017-Mar-07 14:33N 62°29' E 006°13'0 0.0
2017-Mar-07 13:33N 62°29' E 006°13'0 0.0
2017-Mar-07 12:33N 62°29' E 006°13'0 0.0
2017-Mar-07 11:33N 62°29' E 006°13'0 0.0
2017-Mar-07 10:33N 62°29' E 006°13'0 0.0
2017-Mar-07 09:33N 62°29' E 006°13'0 0.0
2017-Mar-07 08:33N 62°29' E 006°13'0 0.0
2017-Mar-07 07:32N 62°29' E 006°13'0 0.0
2017-Mar-07 06:33N 62°29' E 006°13'0 0.0
2017-Mar-07 05:33N 62°29' E 006°13'0 0.0
2017-Mar-07 04:33N 62°29' E 006°13'0 0.0
2017-Mar-07 03:33N 62°29' E 006°13'0 0.0
2017-Mar-07 02:33N 62°29' E 006°13'0 0.0
2017-Mar-07 01:33N 62°29' E 006°13'0 0.0
2017-Mar-07 00:33N 62°29' E 006°13'0 0.0
2017-Mar-06 23:33N 62°29' E 006°13'0 0.0
2017-Mar-06 22:33N 62°29' E 006°13'0 0.0
2017-Mar-06 21:33N 62°29' E 006°13'0 0.0
2017-Mar-06 20:33N 62°29' E 006°13'0 0.0
2017-Mar-06 19:33N 62°29' E 006°13'0 0.0
2017-Mar-06 18:33N 62°29' E 006°13'0 0.0
2017-Mar-06 17:33N 62°29' E 006°13'2 2.2
2017-Mar-06 16:33N 62°29' E 006°09'1 0.7
2017-Mar-06 15:33N 62°28' E 006°08'0 0.0
2017-Mar-06 14:33N 62°28' E 006°08'0 0.0
2017-Mar-06 13:33N 62°28' E 006°08'0 0.0
2017-Mar-06 12:33N 62°28' E 006°08'0 0.0
2017-Mar-06 11:32N 62°28' E 006°08'0 0.0
2017-Mar-06 10:32N 62°28' E 006°08'0 0.0
2017-Mar-06 09:33N 62°28' E 006°08'0 0.0
2017-Mar-06 08:33N 62°28' E 006°08'0 0.0
2017-Mar-06 07:33N 62°28' E 006°08'0 0.0
2017-Mar-06 06:33N 62°28' E 006°08'0 0.0
2017-Mar-06 05:33N 62°28' E 006°08'0 0.0
2017-Mar-06 04:32N 62°28' E 006°08'0 0.0
2017-Mar-06 03:33N 62°28' E 006°08'0 0.4
2017-Mar-06 02:32N 62°29' E 006°07'8 8.2
2017-Mar-06 01:32N 62°29' E 005°49'2 1.5
2017-Mar-06 00:33N 62°29' E 005°46'2 1.9
2017-Mar-05 23:33N 62°30' E 005°42'0 0.2
2017-Mar-05 22:33N 62°30' E 005°43'1 1.0
2017-Mar-05 21:32N 62°30' E 005°45'1 1.2
2017-Mar-05 20:32N 62°29' E 005°47'2 1.7
2017-Mar-05 19:33N 62°28' E 005°50'2 1.8
2017-Mar-05 18:33N 62°27' E 005°53'1 0.7
2017-Mar-05 17:33N 62°28' E 005°52'1 0.8
2017-Mar-05 16:33N 62°28' E 005°51'1 0.8
2017-Mar-05 15:33N 62°29' E 005°49'1 1.0
2017-Mar-05 14:33N 62°29' E 005°47'1 1.5
2017-Mar-05 13:33N 62°30' E 005°45'0 0.4
2017-Mar-05 12:33N 62°30' E 005°44'3 2.7
2017-Mar-05 11:33N 62°29' E 005°49'2 2.4
2017-Mar-05 10:33N 62°28' E 005°53'3 2.7
2017-Mar-05 09:33N 62°26' E 005°58'0 0.0
2017-Mar-05 08:33N 62°26' E 005°58'0 0.1
2017-Mar-05 07:33N 62°26' E 005°58'0 0.3
2017-Mar-05 06:32N 62°26' E 005°58'0 0.4
2017-Mar-05 05:33N 62°26' E 005°59'0 0.4
2017-Mar-05 04:33N 62°26' E 005°59'0 0.2
2017-Mar-05 03:33N 62°26' E 005°59'0 0.1
2017-Mar-05 02:32N 62°26' E 005°59'0 0.1
2017-Mar-05 01:33N 62°26' E 005°59'0 0.1
2017-Mar-05 00:33N 62°26' E 005°59'0 0.1
2017-Mar-04 23:33N 62°26' E 005°59'0 0.4
2017-Mar-04 22:33N 62°26' E 005°59'1 0.9
2017-Mar-04 21:33N 62°26' E 005°57'0 0.5
2017-Mar-04 20:33N 62°26' E 005°57'2 1.9
2017-Mar-04 19:33N 62°27' E 005°53'6 6.3
2017-Mar-04 18:33N 62°27' E 005°40'9 9.5
2017-Mar-04 17:33N 62°27' E 005°19'7 7.3
2017-Mar-04 16:33N 62°27' E 005°04'22 1.2
2017-Mar-03 22:21N 62°46' E 005°28'6 8.1
2017-Mar-03 21:33N 62°50' E 005°40'1 0.3
2017-Mar-03 18:33N 62°50' E 005°41'2 0.9
2017-Mar-03 16:33N 62°52' E 005°44'1 0.7
2017-Mar-03 15:33N 62°51' E 005°43'0 0.0
2017-Mar-03 06:30N 62°51' E 005°42'  

Dump ship's entire track history